sensor_id;sensor_type;location;lat;lon;timestamp;pressure;altitude;pressure_sealevel;temperature;humidity
45541;BME280;31265;49.680;8.608;2023-03-14T00:00:17;98759.78;;;9.76;100.00
45541;BME280;31265;49.680;8.608;2023-03-14T00:02:51;98752.28;;;9.88;100.00
45541;BME280;31265;49.680;8.608;2023-03-14T00:05:22;98739.22;;;9.79;100.00
45541;BME280;31265;49.680;8.608;2023-03-14T00:07:52;98747.53;;;9.79;100.00
45541;BME280;31265;49.680;8.608;2023-03-14T00:10:21;98756.69;;;9.81;100.00
45541;BME280;31265;49.680;8.608;2023-03-14T00:12:53;98764.41;;;9.83;100.00
45541;BME280;31265;49.680;8.608;2023-03-14T00:15:23;98758.16;;;9.82;100.00
45541;BME280;31265;49.680;8.608;2023-03-14T00:20:40;98749.91;;;9.73;100.00
45541;BME280;31265;49.680;8.608;2023-03-14T00:23:10;98750.13;;;9.65;100.00
45541;BME280;31265;49.680;8.608;2023-03-14T00:28:29;98752.28;;;9.66;100.00
45541;BME280;31265;49.680;8.608;2023-03-14T00:30:58;98741.66;;;9.63;100.00
45541;BME280;31265;49.680;8.608;2023-03-14T00:33:26;98745.69;;;9.72;100.00
45541;BME280;31265;49.680;8.608;2023-03-14T00:35:57;98754.13;;;9.74;100.00
45541;BME280;31265;49.680;8.608;2023-03-14T00:38:31;98746.44;;;9.72;100.00
45541;BME280;31265;49.680;8.608;2023-03-14T00:41:03;98745.09;;;9.73;100.00
45541;BME280;31265;49.680;8.608;2023-03-14T00:43:32;98743.66;;;9.72;100.00
45541;BME280;31265;49.680;8.608;2023-03-14T00:46:00;98741.59;;;9.73;100.00
45541;BME280;31265;49.680;8.608;2023-03-14T00:48:29;98731.81;;;9.72;100.00
45541;BME280;31265;49.680;8.608;2023-03-14T00:50:57;98733.75;;;9.69;100.00
45541;BME280;31265;49.680;8.608;2023-03-14T00:53:25;98723.47;;;9.60;100.00
45541;BME280;31265;49.680;8.608;2023-03-14T00:55:55;98724.28;;;9.72;100.00
45541;BME280;31265;49.680;8.608;2023-03-14T00:58:26;98721.50;;;9.72;100.00
45541;BME280;31265;49.680;8.608;2023-03-14T01:00:54;98723.28;;;9.67;100.00
45541;BME280;31265;49.680;8.608;2023-03-14T01:03:23;98729.66;;;9.70;100.00
45541;BME280;31265;49.680;8.608;2023-03-14T01:05:52;98724.00;;;9.68;100.00
45541;BME280;31265;49.680;8.608;2023-03-14T01:08:21;98732.03;;;9.64;100.00
45541;BME280;31265;49.680;8.608;2023-03-14T01:10:49;98743.00;;;9.62;100.00
45541;BME280;31265;49.680;8.608;2023-03-14T01:13:18;98749.91;;;9.73;100.00
45541;BME280;31265;49.680;8.608;2023-03-14T01:15:47;98740.47;;;9.66;100.00
45541;BME280;31265;49.680;8.608;2023-03-14T01:18:15;98750.25;;;9.67;100.00
45541;BME280;31265;49.680;8.608;2023-03-14T01:20:45;98744.72;;;9.67;100.00
45541;BME280;31265;49.680;8.608;2023-03-14T01:23:13;98732.44;;;9.70;100.00
45541;BME280;31265;49.680;8.608;2023-03-14T01:25:42;98714.50;;;9.71;100.00
45541;BME280;31265;49.680;8.608;2023-03-14T01:28:10;98720.16;;;9.73;100.00
45541;BME280;31265;49.680;8.608;2023-03-14T01:30:39;98705.13;;;9.76;100.00
45541;BME280;31265;49.680;8.608;2023-03-14T01:33:10;98709.50;;;9.79;100.00
45541;BME280;31265;49.680;8.608;2023-03-14T01:35:43;98702.88;;;9.84;100.00
45541;BME280;31265;49.680;8.608;2023-03-14T01:38:13;98698.19;;;9.87;100.00
45541;BME280;31265;49.680;8.608;2023-03-14T01:40:42;98697.72;;;9.90;100.00
45541;BME280;31265;49.680;8.608;2023-03-14T01:43:15;98698.78;;;9.85;100.00
45541;BME280;31265;49.680;8.608;2023-03-14T01:49:05;98680.09;;;9.86;100.00
45541;BME280;31265;49.680;8.608;2023-03-14T01:51:40;98672.50;;;9.86;100.00
45541;BME280;31265;49.680;8.608;2023-03-14T01:54:14;98674.84;;;9.90;100.00
45541;BME280;31265;49.680;8.608;2023-03-14T01:56:49;98662.63;;;9.83;100.00
45541;BME280;31265;49.680;8.608;2023-03-14T01:59:18;98662.50;;;9.81;100.00
45541;BME280;31265;49.680;8.608;2023-03-14T02:01:48;98657.34;;;9.87;100.00
45541;BME280;31265;49.680;8.608;2023-03-14T02:04:20;98656.13;;;9.79;100.00
45541;BME280;31265;49.680;8.608;2023-03-14T02:06:52;98646.00;;;9.83;100.00
45541;BME280;31265;49.680;8.608;2023-03-14T02:09:26;98640.13;;;9.89;100.00
45541;BME280;31265;49.680;8.608;2023-03-14T02:11:55;98632.44;;;9.87;100.00
45541;BME280;31265;49.680;8.608;2023-03-14T02:14:47;98628.81;;;9.85;100.00
45541;BME280;31265;49.680;8.608;2023-03-14T02:17:30;98637.13;;;9.85;100.00
45541;BME280;31265;49.680;8.608;2023-03-14T02:20:19;98636.28;;;9.82;100.00
45541;BME280;31265;49.680;8.608;2023-03-14T02:22:56;98631.72;;;9.87;100.00
45541;BME280;31265;49.680;8.608;2023-03-14T02:25:34;98628.53;;;9.81;100.00
45541;BME280;31265;49.680;8.608;2023-03-14T02:28:09;98628.59;;;9.93;100.00
45541;BME280;31265;49.680;8.608;2023-03-14T02:30:40;98616.78;;;9.92;100.00
45541;BME280;31265;49.680;8.608;2023-03-14T02:33:11;98616.53;;;9.88;100.00
45541;BME280;31265;49.680;8.608;2023-03-14T02:35:46;98630.97;;;9.86;100.00
45541;BME280;31265;49.680;8.608;2023-03-14T02:38:19;98620.00;;;9.88;100.00
45541;BME280;31265;49.680;8.608;2023-03-14T02:40:51;98615.53;;;9.83;100.00
45541;BME280;31265;49.680;8.608;2023-03-14T02:43:21;98613.38;;;9.82;100.00
45541;BME280;31265;49.680;8.608;2023-03-14T02:45:57;98615.31;;;9.79;100.00
45541;BME280;31265;49.680;8.608;2023-03-14T02:48:26;98603.88;;;9.85;100.00
45541;BME280;31265;49.680;8.608;2023-03-14T02:50:57;98593.38;;;9.83;100.00
45541;BME280;31265;49.680;8.608;2023-03-14T02:53:29;98599.66;;;9.84;100.00
45541;BME280;31265;49.680;8.608;2023-03-14T02:56:06;98607.63;;;9.89;100.00
45541;BME280;31265;49.680;8.608;2023-03-14T02:58:38;98598.56;;;9.89;100.00
45541;BME280;31265;49.680;8.608;2023-03-14T03:01:26;98603.16;;;9.84;100.00
45541;BME280;31265;49.680;8.608;2023-03-14T03:03:55;98600.88;;;9.93;100.00
45541;BME280;31265;49.680;8.608;2023-03-14T03:06:23;98614.97;;;9.85;100.00
45541;BME280;31265;49.680;8.608;2023-03-14T03:08:52;98606.16;;;9.88;100.00
45541;BME280;31265;49.680;8.608;2023-03-14T03:11:21;98589.31;;;9.84;100.00
45541;BME280;31265;49.680;8.608;2023-03-14T03:13:51;98579.66;;;9.85;100.00
45541;BME280;31265;49.680;8.608;2023-03-14T03:16:20;98578.22;;;9.84;100.00
45541;BME280;31265;49.680;8.608;2023-03-14T03:18:49;98573.38;;;9.73;100.00
45541;BME280;31265;49.680;8.608;2023-03-14T03:21:17;98579.84;;;9.66;100.00
45541;BME280;31265;49.680;8.608;2023-03-14T03:23:50;98579.16;;;9.65;100.00
45541;BME280;31265;49.680;8.608;2023-03-14T03:26:19;98568.50;;;9.50;100.00
45541;BME280;31265;49.680;8.608;2023-03-14T03:28:51;98571.88;;;9.48;100.00
45541;BME280;31265;49.680;8.608;2023-03-14T03:31:24;98564.75;;;9.45;100.00
45541;BME280;31265;49.680;8.608;2023-03-14T03:33:52;98547.03;;;9.39;100.00
45541;BME280;31265;49.680;8.608;2023-03-14T03:36:22;98540.78;;;9.38;100.00
45541;BME280;31265;49.680;8.608;2023-03-14T03:38:51;98543.06;;;9.30;100.00
45541;BME280;31265;49.680;8.608;2023-03-14T03:41:20;98529.94;;;9.31;100.00
45541;BME280;31265;49.680;8.608;2023-03-14T03:43:51;98531.34;;;9.20;100.00
45541;BME280;31265;49.680;8.608;2023-03-14T03:46:22;98524.34;;;9.19;100.00
45541;BME280;31265;49.680;8.608;2023-03-14T03:48:53;98525.91;;;9.22;100.00
45541;BME280;31265;49.680;8.608;2023-03-14T03:51:22;98509.94;;;9.20;100.00
45541;BME280;31265;49.680;8.608;2023-03-14T03:53:51;98514.34;;;9.14;100.00
45541;BME280;31265;49.680;8.608;2023-03-14T03:56:26;98507.63;;;9.17;100.00
45541;BME280;31265;49.680;8.608;2023-03-14T03:58:56;98515.69;;;9.13;100.00
45541;BME280;31265;49.680;8.608;2023-03-14T04:01:27;98517.38;;;9.18;100.00
45541;BME280;31265;49.680;8.608;2023-03-14T04:03:58;98524.63;;;9.23;100.00
45541;BME280;31265;49.680;8.608;2023-03-14T04:06:27;98522.09;;;9.27;100.00
45541;BME280;31265;49.680;8.608;2023-03-14T04:08:58;98519.44;;;9.29;100.00
45541;BME280;31265;49.680;8.608;2023-03-14T04:11:34;98504.66;;;9.36;100.00
45541;BME280;31265;49.680;8.608;2023-03-14T04:14:12;98505.06;;;9.42;100.00
45541;BME280;31265;49.680;8.608;2023-03-14T04:16:40;98514.94;;;9.45;100.00
45541;BME280;31265;49.680;8.608;2023-03-14T04:19:13;98516.97;;;9.45;100.00
45541;BME280;31265;49.680;8.608;2023-03-14T04:21:43;98505.41;;;9.48;100.00
45541;BME280;31265;49.680;8.608;2023-03-14T04:24:13;98517.13;;;9.59;100.00
45541;BME280;31265;49.680;8.608;2023-03-14T04:26:45;98508.94;;;9.61;100.00
45541;BME280;31265;49.680;8.608;2023-03-14T04:29:16;98510.75;;;9.68;100.00
45541;BME280;31265;49.680;8.608;2023-03-14T04:31:46;98508.59;;;9.78;100.00
45541;BME280;31265;49.680;8.608;2023-03-14T04:34:15;98506.91;;;9.73;100.00
45541;BME280;31265;49.680;8.608;2023-03-14T04:36:49;98497.16;;;9.72;100.00
45541;BME280;31265;49.680;8.608;2023-03-14T04:39:23;98509.41;;;9.69;100.00
45541;BME280;31265;49.680;8.608;2023-03-14T04:42:14;98510.53;;;9.76;100.00
45541;BME280;31265;49.680;8.608;2023-03-14T04:44:44;98500.53;;;9.71;100.00
45541;BME280;31265;49.680;8.608;2023-03-14T04:47:14;98502.59;;;9.82;100.00
45541;BME280;31265;49.680;8.608;2023-03-14T04:49:45;98506.09;;;9.82;100.00
45541;BME280;31265;49.680;8.608;2023-03-14T04:52:17;98497.53;;;9.78;100.00
45541;BME280;31265;49.680;8.608;2023-03-14T04:54:46;98508.72;;;9.80;100.00
45541;BME280;31265;49.680;8.608;2023-03-14T04:57:14;98490.66;;;9.79;100.00
45541;BME280;31265;49.680;8.608;2023-03-14T04:59:44;98484.38;;;9.79;100.00
45541;BME280;31265;49.680;8.608;2023-03-14T05:02:31;98478.00;;;9.76;100.00
45541;BME280;31265;49.680;8.608;2023-03-14T05:05:08;98477.88;;;9.74;100.00
45541;BME280;31265;49.680;8.608;2023-03-14T05:07:55;98471.16;;;9.77;100.00
45541;BME280;31265;49.680;8.608;2023-03-14T05:10:50;98466.81;;;9.74;100.00
45541;BME280;31265;49.680;8.608;2023-03-14T05:13:38;98463.81;;;9.70;100.00
45541;BME280;31265;49.680;8.608;2023-03-14T05:16:26;98460.41;;;9.72;100.00
45541;BME280;31265;49.680;8.608;2023-03-14T05:19:02;98456.94;;;9.71;100.00
45541;BME280;31265;49.680;8.608;2023-03-14T05:21:50;98451.78;;;9.77;100.00
45541;BME280;31265;49.680;8.608;2023-03-14T05:24:29;98448.16;;;9.75;100.00
45541;BME280;31265;49.680;8.608;2023-03-14T05:27:13;98446.69;;;9.74;100.00
45541;BME280;31265;49.680;8.608;2023-03-14T05:29:59;98446.09;;;9.75;100.00
45541;BME280;31265;49.680;8.608;2023-03-14T05:32:41;98456.34;;;9.84;100.00
45541;BME280;31265;49.680;8.608;2023-03-14T05:35:12;98452.75;;;9.82;100.00
45541;BME280;31265;49.680;8.608;2023-03-14T05:38:06;98445.97;;;9.73;100.00
45541;BME280;31265;49.680;8.608;2023-03-14T05:40:35;98453.69;;;9.63;100.00
45541;BME280;31265;49.680;8.608;2023-03-14T05:43:09;98452.25;;;9.62;100.00
45541;BME280;31265;49.680;8.608;2023-03-14T05:46:09;98454.06;;;9.57;100.00
45541;BME280;31265;49.680;8.608;2023-03-14T05:49:04;98448.28;;;9.65;100.00
45541;BME280;31265;49.680;8.608;2023-03-14T05:51:51;98456.22;;;9.71;100.00
45541;BME280;31265;49.680;8.608;2023-03-14T05:54:23;98442.84;;;9.67;100.00
45541;BME280;31265;49.680;8.608;2023-03-14T05:57:10;98448.16;;;9.63;100.00
45541;BME280;31265;49.680;8.608;2023-03-14T06:00:08;98445.50;;;9.65;100.00
45541;BME280;31265;49.680;8.608;2023-03-14T06:02:46;98442.00;;;9.76;100.00
45541;BME280;31265;49.680;8.608;2023-03-14T06:05:23;98439.84;;;9.75;100.00
45541;BME280;31265;49.680;8.608;2023-03-14T06:07:57;98447.19;;;9.70;100.00
45541;BME280;31265;49.680;8.608;2023-03-14T06:10:36;98451.16;;;9.67;100.00
45541;BME280;31265;49.680;8.608;2023-03-14T06:13:07;98451.03;;;9.65;100.00
45541;BME280;31265;49.680;8.608;2023-03-14T06:15:37;98439.97;;;9.65;100.00
45541;BME280;31265;49.680;8.608;2023-03-14T06:18:05;98454.88;;;9.72;100.00
45541;BME280;31265;49.680;8.608;2023-03-14T06:20:37;98427.69;;;9.68;100.00
45541;BME280;31265;49.680;8.608;2023-03-14T06:23:12;98432.13;;;9.73;100.00
45541;BME280;31265;49.680;8.608;2023-03-14T06:25:41;98436.34;;;9.74;100.00
45541;BME280;31265;49.680;8.608;2023-03-14T06:28:09;98450.81;;;9.73;100.00
45541;BME280;31265;49.680;8.608;2023-03-14T06:30:37;98451.03;;;9.65;100.00
45541;BME280;31265;49.680;8.608;2023-03-14T06:33:08;98446.72;;;9.62;100.00
45541;BME280;31265;49.680;8.608;2023-03-14T06:35:38;98442.84;;;9.67;100.00
45541;BME280;31265;49.680;8.608;2023-03-14T06:38:08;98446.09;;;9.63;100.00
45541;BME280;31265;49.680;8.608;2023-03-14T06:40:37;98442.34;;;9.59;100.00
45541;BME280;31265;49.680;8.608;2023-03-14T06:43:12;98448.84;;;9.52;100.00
45541;BME280;31265;49.680;8.608;2023-03-14T06:45:43;98443.31;;;9.52;100.00
45541;BME280;31265;49.680;8.608;2023-03-14T06:48:11;98445.50;;;9.53;100.00
45541;BME280;31265;49.680;8.608;2023-03-14T06:50:52;98437.28;;;9.43;100.00
45541;BME280;31265;49.680;8.608;2023-03-14T06:53:21;98436.69;;;9.45;100.00
45541;BME280;31265;49.680;8.608;2023-03-14T06:55:50;98444.50;;;9.48;100.00
45541;BME280;31265;49.680;8.608;2023-03-14T06:58:20;98444.66;;;9.51;100.00
45541;BME280;31265;49.680;8.608;2023-03-14T07:00:49;98442.59;;;9.63;100.00
45541;BME280;31265;49.680;8.608;2023-03-14T07:03:23;98437.41;;;9.69;100.00
45541;BME280;31265;49.680;8.608;2023-03-14T07:05:56;98435.88;;;9.78;100.00
45541;BME280;31265;49.680;8.608;2023-03-14T07:08:24;98437.06;;;9.86;100.00
45541;BME280;31265;49.680;8.608;2023-03-14T07:10:52;98426.22;;;9.79;100.00
45541;BME280;31265;49.680;8.608;2023-03-14T07:13:25;98418.53;;;9.77;100.00
45541;BME280;31265;49.680;8.608;2023-03-14T07:16:00;98409.25;;;9.84;100.00
45541;BME280;31265;49.680;8.608;2023-03-14T07:18:30;98409.00;;;9.80;100.00
45541;BME280;31265;49.680;8.608;2023-03-14T07:21:00;98411.28;;;9.84;100.00
45541;BME280;31265;49.680;8.608;2023-03-14T07:23:28;98411.06;;;9.92;100.00
45541;BME280;31265;49.680;8.608;2023-03-14T07:25:57;98411.75;;;10.04;100.00
45541;BME280;31265;49.680;8.608;2023-03-14T07:28:26;98421.16;;;9.99;100.00
45541;BME280;31265;49.680;8.608;2023-03-14T07:31:01;98426.22;;;10.02;100.00
45541;BME280;31265;49.680;8.608;2023-03-14T07:33:33;98431.25;;;10.06;100.00
45541;BME280;31265;49.680;8.608;2023-03-14T07:36:07;98441.63;;;10.05;100.00
45541;BME280;31265;49.680;8.608;2023-03-14T07:38:35;98443.81;;;10.07;100.00
45541;BME280;31265;49.680;8.608;2023-03-14T07:41:24;98450.78;;;10.08;100.00
45541;BME280;31265;49.680;8.608;2023-03-14T07:44:11;98452.47;;;10.37;100.00
45541;BME280;31265;49.680;8.608;2023-03-14T07:46:40;98460.28;;;10.40;100.00
45541;BME280;31265;49.680;8.608;2023-03-14T07:49:10;98460.91;;;10.39;100.00
45541;BME280;31265;49.680;8.608;2023-03-14T07:51:40;98450.50;;;10.51;100.00
45541;BME280;31265;49.680;8.608;2023-03-14T07:54:08;98459.88;;;10.58;100.00
45541;BME280;31265;49.680;8.608;2023-03-14T07:56:36;98458.56;;;10.59;100.00
45541;BME280;31265;49.680;8.608;2023-03-14T07:59:05;98457.19;;;10.71;100.00
45541;BME280;31265;49.680;8.608;2023-03-14T08:01:34;98447.91;;;10.92;100.00
45541;BME280;31265;49.680;8.608;2023-03-14T08:04:03;98457.81;;;10.95;100.00
45541;BME280;31265;49.680;8.608;2023-03-14T08:06:32;98454.00;;;11.03;100.00
45541;BME280;31265;49.680;8.608;2023-03-14T08:09:01;98457.84;;;11.09;100.00
45541;BME280;31265;49.680;8.608;2023-03-14T08:11:30;98458.84;;;11.02;100.00
45541;BME280;31265;49.680;8.608;2023-03-14T08:13:59;98467.56;;;11.22;100.00
45541;BME280;31265;49.680;8.608;2023-03-14T08:16:27;98467.78;;;11.26;100.00
45541;BME280;31265;49.680;8.608;2023-03-14T08:18:57;98466.84;;;11.22;100.00
45541;BME280;31265;49.680;8.608;2023-03-14T08:21:25;98475.50;;;11.28;100.00
45541;BME280;31265;49.680;8.608;2023-03-14T08:23:54;98477.25;;;11.35;100.00
45541;BME280;31265;49.680;8.608;2023-03-14T08:26:24;98478.59;;;11.34;100.00
45541;BME280;31265;49.680;8.608;2023-03-14T08:28:52;98458.69;;;11.37;100.00
45541;BME280;31265;49.680;8.608;2023-03-14T08:31:20;98464.44;;;11.41;100.00
45541;BME280;31265;49.680;8.608;2023-03-14T08:33:49;98469.44;;;11.71;100.00
45541;BME280;31265;49.680;8.608;2023-03-14T08:36:18;98462.31;;;11.54;100.00
45541;BME280;31265;49.680;8.608;2023-03-14T08:38:50;98466.75;;;11.73;100.00
45541;BME280;31265;49.680;8.608;2023-03-14T08:41:20;98460.75;;;11.65;100.00
45541;BME280;31265;49.680;8.608;2023-03-14T08:43:50;98454.63;;;11.80;100.00
45541;BME280;31265;49.680;8.608;2023-03-14T08:50:37;98463.72;;;11.94;100.00
45541;BME280;31265;49.680;8.608;2023-03-14T08:53:06;98474.72;;;12.06;100.00
45541;BME280;31265;49.680;8.608;2023-03-14T08:55:35;98470.31;;;12.15;100.00
45541;BME280;31265;49.680;8.608;2023-03-14T08:58:04;98464.75;;;11.87;100.00
45541;BME280;31265;49.680;8.608;2023-03-14T09:00:34;98456.50;;;11.89;100.00
45541;BME280;31265;49.680;8.608;2023-03-14T09:03:02;98458.63;;;11.77;100.00
45541;BME280;31265;49.680;8.608;2023-03-14T09:05:32;98459.66;;;11.83;100.00
45541;BME280;31265;49.680;8.608;2023-03-14T09:08:01;98466.69;;;11.98;100.00
45541;BME280;31265;49.680;8.608;2023-03-14T09:10:29;98455.44;;;11.69;100.00
45541;BME280;31265;49.680;8.608;2023-03-14T09:12:58;98464.63;;;11.99;100.00
45541;BME280;31265;49.680;8.608;2023-03-14T09:15:26;98455.06;;;11.88;100.00
45541;BME280;31265;49.680;8.608;2023-03-14T09:17:57;98470.41;;;12.17;100.00
45541;BME280;31265;49.680;8.608;2023-03-14T09:20:25;98463.50;;;12.18;100.00
45541;BME280;31265;49.680;8.608;2023-03-14T09:22:54;98461.25;;;12.00;100.00
45541;BME280;31265;49.680;8.608;2023-03-14T09:25:22;98466.50;;;12.22;100.00
45541;BME280;31265;49.680;8.608;2023-03-14T09:27:51;98458.34;;;12.26;100.00
45541;BME280;31265;49.680;8.608;2023-03-14T09:30:20;98456.47;;;12.44;100.00
45541;BME280;31265;49.680;8.608;2023-03-14T09:32:48;98453.59;;;12.42;100.00
45541;BME280;31265;49.680;8.608;2023-03-14T09:35:19;98460.81;;;12.47;100.00
45541;BME280;31265;49.680;8.608;2023-03-14T09:37:50;98457.22;;;12.03;100.00
45541;BME280;31265;49.680;8.608;2023-03-14T09:40:20;98462.19;;;12.05;100.00
45541;BME280;31265;49.680;8.608;2023-03-14T09:42:51;98459.81;;;12.27;100.00
45541;BME280;31265;49.680;8.608;2023-03-14T09:45:23;98465.97;;;12.39;100.00
45541;BME280;31265;49.680;8.608;2023-03-14T09:47:54;98469.78;;;11.91;100.00
45541;BME280;31265;49.680;8.608;2023-03-14T09:50:33;98466.28;;;12.04;100.00
45541;BME280;31265;49.680;8.608;2023-03-14T09:53:08;98472.78;;;12.09;100.00
45541;BME280;31265;49.680;8.608;2023-03-14T09:55:37;98473.91;;;12.17;100.00
45541;BME280;31265;49.680;8.608;2023-03-14T09:58:11;98481.94;;;12.11;100.00
45541;BME280;31265;49.680;8.608;2023-03-14T10:00:40;98475.44;;;11.93;100.00
45541;BME280;31265;49.680;8.608;2023-03-14T10:03:21;98482.88;;;12.16;100.00
45541;BME280;31265;49.680;8.608;2023-03-14T10:05:52;98468.66;;;12.10;100.00
45541;BME280;31265;49.680;8.608;2023-03-14T10:08:22;98474.84;;;12.22;100.00
45541;BME280;31265;49.680;8.608;2023-03-14T10:10:51;98485.84;;;12.20;100.00
45541;BME280;31265;49.680;8.608;2023-03-14T10:13:22;98479.66;;;11.94;100.00
45541;BME280;31265;49.680;8.608;2023-03-14T10:15:54;98475.25;;;12.02;100.00
45541;BME280;31265;49.680;8.608;2023-03-14T10:18:23;98474.22;;;12.10;100.00
45541;BME280;31265;49.680;8.608;2023-03-14T10:21:05;98471.31;;;11.80;100.00
45541;BME280;31265;49.680;8.608;2023-03-14T10:23:34;98477.63;;;12.08;100.00
45541;BME280;31265;49.680;8.608;2023-03-14T10:26:07;98473.81;;;12.15;100.00
45541;BME280;31265;49.680;8.608;2023-03-14T10:28:41;98468.81;;;11.86;100.00
45541;BME280;31265;49.680;8.608;2023-03-14T10:31:12;98480.53;;;11.71;100.00
45541;BME280;31265;49.680;8.608;2023-03-14T10:33:57;98469.56;;;11.87;100.00
45541;BME280;31265;49.680;8.608;2023-03-14T10:36:29;98481.19;;;11.83;100.00
45541;BME280;31265;49.680;8.608;2023-03-14T10:39:15;98468.78;;;11.58;100.00
45541;BME280;31265;49.680;8.608;2023-03-14T10:41:53;98471.28;;;11.66;100.00
45541;BME280;31265;49.680;8.608;2023-03-14T10:44:26;98474.75;;;11.67;100.00
45541;BME280;31265;49.680;8.608;2023-03-14T10:47:00;98480.84;;;11.63;100.00
45541;BME280;31265;49.680;8.608;2023-03-14T10:49:31;98474.75;;;11.67;100.00
45541;BME280;31265;49.680;8.608;2023-03-14T10:52:15;98482.63;;;11.45;100.00
45541;BME280;31265;49.680;8.608;2023-03-14T10:54:50;98477.59;;;11.41;100.00
45541;BME280;31265;49.680;8.608;2023-03-14T10:57:22;98473.38;;;11.14;100.00
45541;BME280;31265;49.680;8.608;2023-03-14T10:59:52;98481.59;;;11.12;100.00
45541;BME280;31265;49.680;8.608;2023-03-14T11:02:26;98471.28;;;11.01;100.00
45541;BME280;31265;49.680;8.608;2023-03-14T11:05:03;98472.22;;;10.80;100.00
45541;BME280;31265;49.680;8.608;2023-03-14T11:07:40;98481.47;;;10.85;100.00
45541;BME280;31265;49.680;8.608;2023-03-14T11:10:18;98487.72;;;10.97;100.00
45541;BME280;31265;49.680;8.608;2023-03-14T11:12:57;98488.25;;;10.82;100.00
45541;BME280;31265;49.680;8.608;2023-03-14T11:15:35;98492.69;;;10.87;100.00
45541;BME280;31265;49.680;8.608;2023-03-14T11:21:20;98495.88;;;10.81;100.00
45541;BME280;31265;49.680;8.608;2023-03-14T11:24:02;98498.53;;;10.67;100.00
45541;BME280;31265;49.680;8.608;2023-03-14T11:26:39;98503.91;;;10.89;100.00
45541;BME280;31265;49.680;8.608;2023-03-14T11:29:19;98514.72;;;10.71;100.00
45541;BME280;31265;49.680;8.608;2023-03-14T11:31:48;98510.78;;;10.88;100.00
45541;BME280;31265;49.680;8.608;2023-03-14T11:34:22;98515.56;;;10.62;100.00
45541;BME280;31265;49.680;8.608;2023-03-14T11:36:59;98514.63;;;10.45;100.00
45541;BME280;31265;49.680;8.608;2023-03-14T11:39:37;98524.38;;;10.58;100.00
45541;BME280;31265;49.680;8.608;2023-03-14T11:42:10;98515.13;;;10.42;100.00
45541;BME280;31265;49.680;8.608;2023-03-14T11:44:40;98522.72;;;10.29;100.00
45541;BME280;31265;49.680;8.608;2023-03-14T11:47:15;98521.16;;;10.38;100.00
45541;BME280;31265;49.680;8.608;2023-03-14T11:49:48;98528.41;;;10.31;100.00
45541;BME280;31265;49.680;8.608;2023-03-14T11:52:23;98534.66;;;10.32;100.00
45541;BME280;31265;49.680;8.608;2023-03-14T11:54:56;98550.09;;;10.35;100.00
45541;BME280;31265;49.680;8.608;2023-03-14T11:57:27;98558.78;;;10.29;100.00
45541;BME280;31265;49.680;8.608;2023-03-14T11:59:58;98576.50;;;10.36;100.00
45541;BME280;31265;49.680;8.608;2023-03-14T12:02:47;98576.72;;;10.40;100.00
45541;BME280;31265;49.680;8.608;2023-03-14T12:05:37;98587.44;;;10.46;100.00
45541;BME280;31265;49.680;8.608;2023-03-14T12:08:29;98598.31;;;10.42;100.00
45541;BME280;31265;49.680;8.608;2023-03-14T12:11:02;98607.22;;;10.52;100.00
45541;BME280;31265;49.680;8.608;2023-03-14T12:13:34;98631.94;;;10.48;100.00
45541;BME280;31265;49.680;8.608;2023-03-14T12:16:06;98649.41;;;10.39;100.00
45541;BME280;31265;49.680;8.608;2023-03-14T12:18:36;98666.38;;;10.33;100.00
45541;BME280;31265;49.680;8.608;2023-03-14T12:21:07;98680.09;;;10.19;100.00
45541;BME280;31265;49.680;8.608;2023-03-14T12:23:42;98699.09;;;10.13;100.00
45541;BME280;31265;49.680;8.608;2023-03-14T12:26:18;98710.63;;;9.98;100.00
45541;BME280;31265;49.680;8.608;2023-03-14T12:28:50;98715.69;;;9.68;100.00
45541;BME280;31265;49.680;8.608;2023-03-14T12:31:37;98735.81;;;9.47;100.00
45541;BME280;31265;49.680;8.608;2023-03-14T12:34:28;98750.63;;;9.30;100.00
45541;BME280;31265;49.680;8.608;2023-03-14T12:37:05;98752.34;;;9.35;100.00
45541;BME280;31265;49.680;8.608;2023-03-14T12:39:46;98764.94;;;9.48;100.00
45541;BME280;31265;49.680;8.608;2023-03-14T12:42:24;98765.16;;;9.62;100.00
45541;BME280;31265;49.680;8.608;2023-03-14T12:45:22;98783.59;;;9.69;100.00
45541;BME280;31265;49.680;8.608;2023-03-14T12:48:09;98789.41;;;9.73;100.00
45541;BME280;31265;49.680;8.608;2023-03-14T12:50:43;98795.75;;;9.85;100.00
45541;BME280;31265;49.680;8.608;2023-03-14T12:53:40;98808.13;;;10.06;100.00
45541;BME280;31265;49.680;8.608;2023-03-14T12:56:24;98811.22;;;10.22;100.00
45541;BME280;31265;49.680;8.608;2023-03-14T12:59:23;98813.28;;;10.21;100.00
45541;BME280;31265;49.680;8.608;2023-03-14T13:01:59;98818.69;;;10.19;100.00
45541;BME280;31265;49.680;8.608;2023-03-14T13:04:32;98833.84;;;10.18;100.00
45541;BME280;31265;49.680;8.608;2023-03-14T13:07:12;98840.44;;;10.13;100.00
45541;BME280;31265;49.680;8.608;2023-03-14T13:10:00;98851.28;;;10.09;100.00
45541;BME280;31265;49.680;8.608;2023-03-14T13:12:38;98857.22;;;10.15;100.00
45541;BME280;31265;49.680;8.608;2023-03-14T13:15:18;98862.81;;;10.05;100.00
45541;BME280;31265;49.680;8.608;2023-03-14T13:17:50;98854.91;;;10.11;100.00
45541;BME280;31265;49.680;8.608;2023-03-14T13:20:24;98881.56;;;10.17;100.00
45541;BME280;31265;49.680;8.608;2023-03-14T13:22:55;98889.97;;;10.28;100.00
45541;BME280;31265;49.680;8.608;2023-03-14T13:25:23;98915.59;;;10.39;100.00
45541;BME280;31265;49.680;8.608;2023-03-14T13:27:53;98897.34;;;10.57;100.00
45541;BME280;31265;49.680;8.608;2023-03-14T13:30:26;98925.06;;;10.57;100.00
45541;BME280;31265;49.680;8.608;2023-03-14T13:32:55;98933.72;;;10.51;100.00
45541;BME280;31265;49.680;8.608;2023-03-14T13:35:27;98933.59;;;10.28;100.00
45541;BME280;31265;49.680;8.608;2023-03-14T13:37:58;98945.09;;;10.03;100.00
45541;BME280;31265;49.680;8.608;2023-03-14T13:40:43;98971.13;;;9.88;100.00
45541;BME280;31265;49.680;8.608;2023-03-14T13:43:15;98983.34;;;9.95;100.00